Time;durP1;ratioP1;P1;durP2;ratioP2;P2;SDS_P1;SDS_P2;PMS_P1;PMS_P2;Temp;Humidity;BMP_temperature;BMP_pressure;BME280_temperature;BME280_humidity;BME280_pressure;Samples;Min_cycle;Max_cycle;Signal;HPM_P1;HPM_P2
2020/12/02 00:02:10;;;;;;;17.23;9.93;;;8.10;99.90;;;;;;3521705;33;20816;-81
2020/12/02 00:04:38;;;;;;;11.60;8.57;;;8.00;99.90;;;;;;3524823;33;20378;-80
2020/12/02 00:07:06;;;;;;;13.10;9.97;;;8.10;99.90;;;;;;3526652;33;20793;-80
2020/12/02 00:09:32;;;;;;;12.07;9.57;;;7.90;99.90;;;;;;3534902;32;20370;-80
2020/12/02 00:11:59;;;;;;;13.17;9.83;;;7.70;99.90;;;;;;3534729;33;21652;-80
2020/12/02 00:14:28;;;;;;;13.43;9.87;;;7.50;99.90;;;;;;3530863;33;20365;-79
2020/12/02 00:16:55;;;;;;;14.17;10.07;;;7.80;99.90;;;;;;3531368;33;22337;-79
2020/12/02 00:19:22;;;;;;;15.90;10.27;;;7.80;99.90;;;;;;3532737;32;20339;-80
2020/12/02 00:22:08;;;;;;;19.27;10.00;;;7.90;99.90;;;;;;3530844;32;20378;-80
2020/12/02 00:24:34;;;;;;;14.23;10.13;;;8.00;99.90;;;;;;3539391;32;20388;-82
2020/12/02 00:27:03;;;;;;;14.77;10.03;;;7.80;99.90;;;;;;3529029;40;21090;-80
2020/12/02 00:29:30;;;;;;;15.10;9.90;;;8.10;99.90;;;;;;3535442;32;20350;-80
2020/12/02 00:31:56;;;;;;;17.57;11.40;;;8.30;99.90;;;;;;3542432;32;20362;-79
2020/12/02 00:34:22;;;;;;;14.83;10.40;;;8.20;99.90;;;;;;3541108;40;20321;-80
2020/12/02 00:36:48;;;;;;;16.60;10.90;;;8.20;99.90;;;;;;3543000;32;20392;-80
2020/12/02 00:39:14;;;;;;;16.60;11.17;;;8.00;99.90;;;;;;3546251;32;20331;-80
2020/12/02 00:41:40;;;;;;;13.07;10.50;;;7.70;99.90;;;;;;3543029;32;20419;-81
2020/12/02 00:44:07;;;;;;;15.13;10.70;;;7.90;99.90;;;;;;3535946;32;20339;-80
2020/12/02 00:46:34;;;;;;;14.27;9.87;;;7.60;99.90;;;;;;3547403;32;20335;-81
2020/12/02 00:49:00;;;;;;;16.13;11.73;;;7.60;99.90;;;;;;3549699;32;20375;-80
2020/12/02 00:51:27;;;;;;;14.77;10.83;;;7.40;99.90;;;;;;3556303;32;20346;-81
2020/12/02 00:53:53;;;;;;;18.63;12.03;;;7.70;99.90;;;;;;3550532;32;20359;-81
2020/12/02 00:56:20;;;;;;;15.33;11.80;;;8.10;99.90;;;;;;3544063;33;20353;-81
2020/12/02 00:59:09;;;;;;;16.47;11.63;;;8.20;99.90;;;;;;3549983;32;20434;-80
2020/12/02 01:01:38;;;;;;;16.70;10.83;;;8.20;99.90;;;;;;3556995;32;20302;-81
2020/12/02 01:04:07;;;;;;;17.30;11.83;;;8.10;99.90;;;;;;3554425;32;20366;-79
2020/12/02 01:06:34;;;;;;;16.03;11.80;;;8.00;99.90;;;;;;3550361;32;20365;-80
2020/12/02 01:09:00;;;;;;;14.20;10.43;;;7.90;99.90;;;;;;3550635;33;20355;-80
2020/12/02 01:11:28;;;;;;;15.63;11.00;;;7.80;99.90;;;;;;3538370;32;20361;-80
2020/12/02 01:14:02;;;;;;;16.70;10.97;;;7.70;99.90;;;;;;3555845;32;20370;-79
2020/12/02 01:16:42;;;;;;;12.53;10.10;;;7.90;99.90;;;;;;3535794;40;20386;-80
2020/12/02 01:19:16;;;;;;;15.87;10.03;;;7.60;99.90;;;;;;3547632;32;21940;-79
2020/12/02 01:21:54;;;;;;;15.20;11.83;;;7.80;99.90;;;;;;3544666;40;20458;-78
2020/12/02 01:24:28;;;;;;;14.43;10.67;;;8.00;99.90;;;;;;3544157;32;20365;-79
2020/12/02 01:27:04;;;;;;;15.90;11.17;;;8.00;99.90;;;;;;3534797;33;20765;-79
2020/12/02 01:29:30;;;;;;;12.80;9.10;;;8.10;99.90;;;;;;3547730;32;20356;-80
2020/12/02 01:31:58;;;;;;;11.87;10.00;;;8.00;99.90;;;;;;3544663;40;20370;-79
2020/12/02 01:34:25;;;;;;;15.20;9.90;;;7.80;99.90;;;;;;3537082;32;21049;-80
2020/12/02 01:37:16;;;;;;;17.50;9.80;;;7.70;99.90;;;;;;3547524;32;20386;-80
2020/12/02 01:40:06;;;;;;;14.97;9.80;;;7.80;99.90;;;;;;3544907;40;20374;-80
2020/12/02 01:42:32;;;;;;;15.50;9.77;;;8.00;99.90;;;;;;3547072;32;20397;-78
2020/12/02 01:45:04;;;;;;;13.53;9.40;;;7.80;99.90;;;;;;3554943;32;20848;-81
2020/12/02 01:47:50;;;;;;;14.53;8.93;;;7.80;99.90;;;;;;3559587;32;20444;-80
2020/12/02 01:50:34;;;;;;;10.80;8.83;;;7.60;99.90;;;;;;3549444;32;20377;-79
2020/12/02 01:53:03;;;;;;;9.70;8.27;;;7.60;99.90;;;;;;3538156;32;20377;-79
2020/12/02 01:55:37;;;;;;;10.90;9.07;;;7.70;99.90;;;;;;3542954;32;20356;-78
2020/12/02 01:58:17;;;;;;;12.23;9.13;;;7.60;99.90;;;;;;3533366;33;21646;-79
2020/12/02 02:00:51;;;;;;;14.03;8.90;;;7.80;99.90;;;;;;3546065;32;20372;-76
2020/12/02 02:03:19;;;;;;;11.77;8.00;;;7.80;99.90;;;;;;3543161;32;20409;-79
2020/12/02 02:05:56;;;;;;;15.70;9.80;;;7.80;99.90;;;;;;3542407;32;20343;-77
2020/12/02 02:08:26;;;;;;;11.20;8.23;;;7.50;99.90;;;;;;3543776;32;20648;-77
2020/12/02 02:10:54;;;;;;;10.47;7.90;;;7.30;99.90;;;;;;3549915;32;20370;-76
2020/12/02 02:13:42;;;;;;;15.50;8.73;;;7.40;99.90;;;;;;3542637;40;20303;-77
2020/12/02 02:16:10;;;;;;;10.40;8.33;;;7.80;99.90;;;;;;3552594;32;20349;-78
2020/12/02 02:18:37;;;;;;;12.53;8.40;;;7.50;99.90;;;;;;3554325;32;20321;-76
2020/12/02 02:21:07;;;;;;;11.10;8.33;;;7.50;99.90;;;;;;3552858;32;20393;-76
2020/12/02 02:23:33;;;;;;;12.20;8.23;;;7.80;99.90;;;;;;3552361;32;20374;-80
2020/12/02 02:26:22;;;;;;;10.70;8.40;;;8.00;99.90;;;;;;3547790;32;20461;-75
2020/12/02 02:29:02;;;;;;;14.87;9.90;;;8.00;99.90;;;;;;3547933;32;20337;-76
2020/12/02 02:31:31;;;;;;;12.23;8.70;;;8.00;99.90;;;;;;3552120;33;20366;-77
2020/12/02 02:33:58;;;;;;;11.67;8.33;;;7.80;99.90;;;;;;3553833;32;20383;-78
2020/12/02 02:36:28;;;;;;;14.43;9.47;;;7.60;99.90;;;;;;3551064;33;20340;-77
2020/12/02 02:38:55;;;;;;;9.50;7.27;;;7.20;99.90;;;;;;3555509;32;20315;-77
2020/12/02 02:41:23;;;;;;;13.93;9.90;;;7.50;99.90;;;;;;3544605;32;20366;-80
2020/12/02 02:43:50;;;;;;;14.50;10.10;;;7.60;99.90;;;;;;3549178;32;20388;-78
2020/12/02 02:46:16;;;;;;;12.80;9.23;;;7.60;99.90;;;;;;3549095;32;20358;-76
2020/12/02 02:48:42;;;;;;;12.50;9.77;;;7.90;99.90;;;;;;3548696;32;20814;-81
2020/12/02 02:51:09;;;;;;;12.20;8.73;;;7.60;99.90;;;;;;3546422;32;20365;-80
2020/12/02 02:53:36;;;;;;;11.53;9.40;;;7.70;99.90;;;;;;3544097;32;20362;-80
2020/12/02 02:56:02;;;;;;;12.50;8.10;;;7.90;99.90;;;;;;3549239;32;20406;-80
2020/12/02 02:58:29;;;;;;;11.50;8.77;;;7.90;99.90;;;;;;3539294;32;20335;-78
2020/12/02 03:00:57;;;;;;;12.20;10.50;;;7.80;99.90;;;;;;3532999;32;20417;-78
2020/12/02 03:03:23;;;;;;;10.10;8.07;;;7.70;99.90;;;;;;3546295;32;21006;-79
2020/12/02 03:05:50;;;;;;;11.57;9.03;;;7.40;99.90;;;;;;3535474;32;20792;-78
2020/12/02 03:08:17;;;;;;;10.37;8.50;;;7.30;99.90;;;;;;3533105;40;20421;-80
2020/12/02 03:10:45;;;;;;;10.80;9.30;;;7.40;99.90;;;;;;3544494;32;20372;-78
2020/12/02 03:13:32;;;;;;;10.03;7.97;;;7.40;99.90;;;;;;3543624;32;20380;-75
2020/12/02 03:16:04;;;;;;;9.67;8.37;;;7.40;99.90;;;;;;3541363;40;20804;-76
2020/12/02 03:18:31;;;;;;;9.60;8.07;;;7.40;99.90;;;;;;3532659;40;20350;-78
2020/12/02 03:21:08;;;;;;;12.07;8.40;;;7.40;99.90;;;;;;3540725;33;20384;-80
2020/12/02 03:23:34;;;;;;;10.00;7.77;;;7.40;99.90;;;;;;3537075;32;20381;-78
2020/12/02 03:26:01;;;;;;;10.10;8.10;;;7.30;99.90;;;;;;3534895;32;20386;-78
2020/12/02 03:28:28;;;;;;;13.70;8.87;;;7.20;99.90;;;;;;3538111;32;20366;-79
2020/12/02 03:31:09;;;;;;;10.10;7.50;;;7.40;99.90;;;;;;3546305;40;20430;-78
2020/12/02 03:33:36;;;;;;;11.47;7.80;;;7.20;99.90;;;;;;3537774;33;20384;-77
2020/12/02 03:36:02;;;;;;;8.57;7.03;;;7.20;99.90;;;;;;3545209;32;20374;-77
2020/12/02 03:38:28;;;;;;;11.47;7.40;;;7.40;99.90;;;;;;3542294;32;20372;-79
2020/12/02 03:40:54;;;;;;;9.03;7.77;;;7.60;99.90;;;;;;3542383;32;20417;-77
2020/12/02 03:43:21;;;;;;;9.37;7.27;;;7.30;99.90;;;;;;3536426;32;20374;-77
2020/12/02 03:45:47;;;;;;;8.23;6.50;;;7.20;99.90;;;;;;3546123;40;20471;-77
2020/12/02 03:48:17;;;;;;;11.23;7.00;;;7.40;99.90;;;;;;3546118;32;20390;-76
2020/12/02 03:50:44;;;;;;;9.37;8.00;;;7.10;99.90;;;;;;3547985;32;20377;-77
2020/12/02 03:53:12;;;;;;;12.20;7.70;;;7.30;99.90;;;;;;3547503;32;20347;-78
2020/12/02 03:55:38;;;;;;;12.87;6.57;;;7.20;99.90;;;;;;3544898;32;20343;-78
2020/12/02 03:58:05;;;;;;;8.23;6.70;;;7.40;99.90;;;;;;3545906;32;20380;-77
2020/12/02 04:00:31;;;;;;;7.93;7.13;;;7.50;99.90;;;;;;3543389;32;20926;-79
2020/12/02 04:02:58;;;;;;;9.07;7.20;;;7.70;99.90;;;;;;3540368;32;20358;-78
2020/12/02 04:05:24;;;;;;;8.10;6.67;;;7.30;99.90;;;;;;3539002;32;20382;-76
2020/12/02 04:07:50;;;;;;;8.27;7.40;;;7.50;99.90;;;;;;3540653;40;20370;-79
2020/12/02 04:10:17;;;;;;;9.67;7.70;;;7.50;99.90;;;;;;3548653;32;20378;-78
2020/12/02 04:12:45;;;;;;;8.03;7.23;;;7.50;99.90;;;;;;3545629;32;20393;-78
2020/12/02 04:15:16;;;;;;;10.90;7.40;;;7.40;99.90;;;;;;3542974;32;20391;-77
2020/12/02 04:17:43;;;;;;;9.60;7.87;;;7.40;99.90;;;;;;3540690;40;20358;-78
2020/12/02 04:20:09;;;;;;;12.70;8.10;;;7.40;99.90;;;;;;3542264;32;20392;-76
2020/12/02 04:22:36;;;;;;;8.47;7.27;;;7.20;99.90;;;;;;3547144;32;20319;-78
2020/12/02 04:25:05;;;;;;;8.60;7.70;;;6.80;99.90;;;;;;3539980;40;20370;-78
2020/12/02 04:27:31;;;;;;;8.50;7.37;;;6.70;99.90;;;;;;3533272;32;20361;-78
2020/12/02 04:29:57;;;;;;;10.13;8.07;;;6.80;99.90;;;;;;3540234;33;20791;-78
2020/12/02 04:32:23;;;;;;;9.57;7.47;;;6.80;99.90;;;;;;3541920;32;20382;-78
2020/12/02 04:34:49;;;;;;;7.80;7.00;;;7.20;99.90;;;;;;3531426;33;20358;-77
2020/12/02 04:37:16;;;;;;;10.93;8.40;;;7.20;99.90;;;;;;3541103;32;20418;-79
2020/12/02 04:39:43;;;;;;;10.87;8.03;;;7.40;99.90;;;;;;3531330;40;20378;-76
2020/12/02 04:42:10;;;;;;;9.40;7.63;;;7.40;99.90;;;;;;3547002;32;20473;-77
2020/12/02 04:44:37;;;;;;;8.63;7.33;;;7.50;99.90;;;;;;3539950;32;20370;-77
2020/12/02 04:47:11;;;;;;;12.03;9.30;;;7.60;99.90;;;;;;3537787;32;20393;-78
2020/12/02 04:49:37;;;;;;;12.60;10.07;;;7.30;99.90;;;;;;3540322;40;20400;-78
2020/12/02 04:52:13;;;;;;;10.07;7.50;;;7.40;99.90;;;;;;3549800;32;20383;-76
2020/12/02 04:54:41;;;;;;;12.57;8.30;;;7.20;99.90;;;;;;3542261;40;20409;-80
2020/12/02 04:57:11;;;;;;;9.67;7.30;;;7.30;99.90;;;;;;3547538;32;20338;-79
2020/12/02 04:59:43;;;;;;;8.70;6.93;;;7.10;99.90;;;;;;3534317;33;20889;-80
2020/12/02 05:02:28;;;;;;;10.40;8.07;;;7.30;99.90;;;;;;3550165;32;20358;-79
2020/12/02 05:04:56;;;;;;;7.80;6.90;;;7.10;99.90;;;;;;3542179;40;20380;-78
2020/12/02 05:07:27;;;;;;;9.13;7.97;;;7.30;99.90;;;;;;3541358;40;20351;-78
2020/12/02 05:10:17;;;;;;;10.77;7.33;;;7.40;99.90;;;;;;3543278;32;20382;-78
2020/12/02 05:12:47;;;;;;;9.53;7.90;;;7.20;99.90;;;;;;3534995;32;20370;-78
2020/12/02 05:15:22;;;;;;;8.40;7.10;;;7.20;99.90;;;;;;3545716;32;20377;-78
2020/12/02 05:18:01;;;;;;;10.73;7.43;;;7.20;99.90;;;;;;3542017;40;20390;-77
2020/12/02 05:20:27;;;;;;;10.13;7.70;;;7.50;99.90;;;;;;3547110;32;20987;-78
2020/12/02 05:22:53;;;;;;;10.13;8.50;;;7.60;99.90;;;;;;3544641;32;20390;-78
2020/12/02 05:25:31;;;;;;;9.40;7.60;;;7.70;99.90;;;;;;3538116;32;20381;-77
2020/12/02 05:28:32;;;;;;;11.50;7.90;;;7.40;99.90;;;;;;3548243;32;20334;-79
2020/12/02 05:31:13;;;;;;;9.53;7.33;;;7.30;99.90;;;;;;3542726;32;20775;-76
2020/12/02 05:33:40;;;;;;;10.20;7.90;;;7.20;99.90;;;;;;3533959;32;20436;-77
2020/12/02 05:36:20;;;;;;;9.63;8.17;;;6.90;99.90;;;;;;3546954;32;20361;-76
2020/12/02 05:39:00;;;;;;;11.60;8.20;;;7.30;99.90;;;;;;3547592;32;20353;-78
2020/12/02 05:41:27;;;;;;;14.70;8.53;;;7.30;99.90;;;;;;3542789;40;20354;-78
2020/12/02 05:43:59;;;;;;;9.70;7.63;;;7.20;99.90;;;;;;3545559;32;20414;-76
2020/12/02 05:46:39;;;;;;;11.40;7.97;;;7.00;99.90;;;;;;3544801;32;20510;-78
2020/12/02 05:49:12;;;;;;;13.80;7.30;;;7.00;99.90;;;;;;3545376;32;20373;-80
2020/12/02 05:51:41;;;;;;;10.00;7.77;;;6.90;99.90;;;;;;3544654;32;20354;-79
2020/12/02 05:54:20;;;;;;;9.63;7.30;;;6.80;99.90;;;;;;3555337;32;20362;-78
2020/12/02 05:56:46;;;;;;;8.20;7.40;;;7.10;99.90;;;;;;3536685;33;20346;-79
2020/12/02 05:59:13;;;;;;;9.80;7.50;;;7.00;99.90;;;;;;3542752;32;20370;-78
2020/12/02 06:01:39;;;;;;;10.60;8.67;;;7.30;99.90;;;;;;3543071;32;20369;-77
2020/12/02 06:04:12;;;;;;;10.33;7.83;;;7.20;99.90;;;;;;3543003;32;20369;-78
2020/12/02 06:06:39;;;;;;;7.90;7.07;;;7.10;99.90;;;;;;3542952;32;20370;-78
2020/12/02 06:09:06;;;;;;;10.13;7.30;;;7.20;99.90;;;;;;3542615;32;20380;-77
2020/12/02 06:11:36;;;;;;;10.27;7.10;;;7.50;99.90;;;;;;3544671;32;20354;-79
2020/12/02 06:14:13;;;;;;;8.90;8.00;;;7.40;99.90;;;;;;3548880;32;20795;-80
2020/12/02 06:16:45;;;;;;;11.63;8.20;;;7.20;99.90;;;;;;3541814;33;20381;-78
2020/12/02 06:19:21;;;;;;;9.53;6.57;;;6.80;99.90;;;;;;3534350;32;20414;-79
2020/12/02 06:21:47;;;;;;;9.73;7.33;;;7.10;99.90;;;;;;3544525;32;20439;-78
2020/12/02 06:24:32;;;;;;;9.97;7.70;;;6.90;99.90;;;;;;3546758;32;20376;-76
2020/12/02 06:27:00;;;;;;;9.43;7.93;;;7.00;99.90;;;;;;3531692;40;20343;-79
2020/12/02 06:29:36;;;;;;;9.27;7.20;;;7.00;99.90;;;;;;3544684;32;20368;-78
2020/12/02 06:32:18;;;;;;;12.37;7.30;;;6.60;99.90;;;;;;3543003;32;20383;-79
2020/12/02 06:34:46;;;;;;;9.20;7.13;;;6.60;99.90;;;;;;3544722;32;20366;-78
2020/12/02 06:37:21;;;;;;;9.37;6.97;;;6.60;99.90;;;;;;3543424;32;20836;-80
2020/12/02 06:39:48;;;;;;;9.20;7.30;;;6.80;99.90;;;;;;3548942;32;20338;-78
2020/12/02 06:42:32;;;;;;;8.80;7.20;;;6.70;99.90;;;;;;3540982;40;20362;-77
2020/12/02 06:45:16;;;;;;;9.10;7.70;;;7.00;99.90;;;;;;3542792;32;20374;-78
2020/12/02 06:48:00;;;;;;;9.20;8.00;;;7.00;99.90;;;;;;3546819;32;20362;-78
2020/12/02 06:50:33;;;;;;;11.43;7.90;;;6.90;99.90;;;;;;3542575;40;20392;-77
2020/12/02 06:53:20;;;;;;;12.50;8.87;;;6.70;99.90;;;;;;3542617;32;21103;-79
2020/12/02 06:55:47;;;;;;;11.67;7.90;;;7.10;99.90;;;;;;3542441;32;20401;-77
2020/12/02 06:58:17;;;;;;;10.10;8.10;;;7.20;99.90;;;;;;3535492;32;20362;-76
2020/12/02 07:00:51;;;;;;;11.27;7.80;;;7.00;99.90;;;;;;3533437;32;20358;-78
2020/12/02 07:03:21;;;;;;;11.57;9.17;;;6.90;99.90;;;;;;3543556;32;20525;-80
2020/12/02 07:05:48;;;;;;;10.37;8.90;;;7.00;99.90;;;;;;3533820;32;20351;-79
2020/12/02 07:08:34;;;;;;;9.77;7.50;;;6.80;99.90;;;;;;3542567;32;20372;-77
2020/12/02 07:11:22;;;;;;;13.03;8.00;;;6.90;99.90;;;;;;3531571;33;20358;-78
2020/12/02 07:13:52;;;;;;;10.07;6.97;;;6.50;99.90;;;;;;3532248;33;20366;-78
2020/12/02 07:16:31;;;;;;;10.50;7.90;;;6.40;99.90;;;;;;3545151;32;20425;-78
2020/12/02 07:19:01;;;;;;;10.90;8.80;;;6.80;99.90;;;;;;3539482;40;21134;-77
2020/12/02 07:21:33;;;;;;;11.37;7.80;;;6.90;99.90;;;;;;3540760;40;20382;-77
2020/12/02 07:24:00;;;;;;;10.17;8.20;;;7.10;99.90;;;;;;3541077;40;20389;-77
2020/12/02 07:26:28;;;;;;;10.50;8.07;;;7.10;99.90;;;;;;3542918;32;20390;-77
2020/12/02 07:29:11;;;;;;;9.77;8.77;;;7.20;99.90;;;;;;3531185;40;20377;-77
2020/12/02 07:31:38;;;;;;;9.07;7.63;;;7.00;99.90;;;;;;3542151;32;20728;-79
2020/12/02 07:34:05;;;;;;;13.40;9.17;;;7.00;99.90;;;;;;3536372;32;20818;-78
2020/12/02 07:36:34;;;;;;;8.53;7.43;;;6.50;99.90;;;;;;3537113;32;20410;-77
2020/12/02 07:39:12;;;;;;;11.60;9.27;;;6.80;99.90;;;;;;3541789;32;20490;-77
2020/12/02 07:41:58;;;;;;;12.57;8.37;;;6.70;99.90;;;;;;3543349;32;20455;-77
2020/12/02 07:44:27;;;;;;;9.27;8.00;;;6.30;99.90;;;;;;3549123;32;21054;-77
2020/12/02 07:46:59;;;;;;;10.40;8.73;;;6.20;99.90;;;;;;3539907;32;20401;-78
2020/12/02 07:49:26;;;;;;;9.23;8.13;;;6.40;99.90;;;;;;3548248;32;20381;-78
2020/12/02 07:52:08;;;;;;;9.67;8.70;;;6.30;99.90;;;;;;3545670;32;20393;-78
2020/12/02 07:54:34;;;;;;;9.57;8.23;;;6.20;99.90;;;;;;3539458;40;20828;-79
2020/12/02 07:57:02;;;;;;;11.23;8.27;;;6.20;99.90;;;;;;3540488;32;20816;-80
2020/12/02 07:59:31;;;;;;;10.57;7.63;;;6.20;99.90;;;;;;3536193;32;20391;-77
2020/12/02 08:01:58;;;;;;;10.53;7.70;;;6.30;99.90;;;;;;3544983;32;20358;-78
2020/12/02 08:04:24;;;;;;;9.13;7.83;;;6.20;99.90;;;;;;3530723;32;20461;-79
2020/12/02 08:07:02;;;;;;;11.47;7.47;;;6.20;99.90;;;;;;3537854;33;20644;-78
2020/12/02 08:09:33;;;;;;;10.93;8.27;;;6.40;99.90;;;;;;3545474;32;20365;-78
2020/12/02 08:12:04;;;;;;;11.13;9.33;;;6.40;99.90;;;;;;3541090;33;21086;-77
2020/12/02 08:14:43;;;;;;;15.00;9.80;;;6.50;99.90;;;;;;3544685;32;20365;-79
2020/12/02 08:17:22;;;;;;;11.43;9.43;;;6.20;99.90;;;;;;3531169;32;20437;-77
2020/12/02 08:20:00;;;;;;;10.50;7.67;;;6.10;99.90;;;;;;3546394;32;20401;-79
2020/12/02 08:22:48;;;;;;;9.60;8.43;;;6.10;99.90;;;;;;3539548;32;20385;-78
2020/12/02 08:25:20;;;;;;;11.83;9.90;;;6.50;99.90;;;;;;3542524;32;20377;-78
2020/12/02 08:27:49;;;;;;;10.57;8.70;;;6.70;99.90;;;;;;3541699;32;20346;-78
2020/12/02 08:30:20;;;;;;;11.10;8.37;;;6.30;99.90;;;;;;3544874;32;20389;-78
2020/12/02 08:32:55;;;;;;;11.30;9.33;;;6.30;99.90;;;;;;3543866;32;20376;-78
2020/12/02 08:35:38;;;;;;;12.00;9.10;;;6.70;99.90;;;;;;3544316;32;20367;-77
2020/12/02 08:38:05;;;;;;;11.17;8.90;;;6.70;99.90;;;;;;3544108;32;20361;-78
2020/12/02 08:40:44;;;;;;;16.07;10.10;;;6.50;99.90;;;;;;3537349;32;20365;-79
2020/12/02 08:43:40;;;;;;;12.90;9.87;;;6.60;99.90;;;;;;3534153;32;20961;-78
2020/12/02 08:46:07;;;;;;;10.27;8.60;;;6.60;99.90;;;;;;3544518;32;20334;-78
2020/12/02 08:48:34;;;;;;;14.40;11.00;;;6.80;99.90;;;;;;3534274;32;20781;-78
2020/12/02 08:51:01;;;;;;;14.43;9.70;;;6.60;99.90;;;;;;3541559;40;20362;-77
2020/12/02 08:53:30;;;;;;;17.37;10.90;;;6.50;99.90;;;;;;3534857;33;20376;-79
2020/12/02 08:55:57;;;;;;;17.23;11.20;;;6.60;99.90;;;;;;3531772;40;20378;-78
2020/12/02 08:58:24;;;;;;;13.53;10.43;;;6.30;99.90;;;;;;3535579;32;20937;-78
2020/12/02 09:00:51;;;;;;;12.77;10.67;;;6.60;99.90;;;;;;3541239;40;20395;-78
2020/12/02 09:03:18;;;;;;;11.00;8.30;;;6.30;99.90;;;;;;3547009;32;20904;-79
2020/12/02 09:05:45;;;;;;;9.87;8.30;;;6.40;99.90;;;;;;3541288;32;20707;-78
2020/12/02 09:08:14;;;;;;;10.57;7.93;;;6.70;99.90;;;;;;3542226;40;20404;-81
2020/12/02 09:10:40;;;;;;;9.70;8.23;;;6.60;99.90;;;;;;3541171;33;20334;-78
2020/12/02 09:13:06;;;;;;;12.50;9.50;;;6.90;99.90;;;;;;3539238;32;21345;-79
2020/12/02 09:15:32;;;;;;;9.53;7.93;;;7.00;99.90;;;;;;3553155;32;20594;-78
2020/12/02 09:17:59;;;;;;;10.63;8.20;;;6.80;99.90;;;;;;3534854;32;20378;-78
2020/12/02 09:20:26;;;;;;;9.37;8.20;;;6.80;99.90;;;;;;3543829;32;21349;-79
2020/12/02 09:22:53;;;;;;;10.97;7.33;;;6.90;99.90;;;;;;3546136;32;20330;-78
2020/12/02 09:25:19;;;;;;;8.63;7.13;;;6.70;99.90;;;;;;3541100;40;20389;-77
2020/12/02 09:27:46;;;;;;;9.83;8.10;;;6.30;99.90;;;;;;3535882;32;20948;-77
2020/12/02 09:30:12;;;;;;;7.93;7.00;;;6.40;99.90;;;;;;3542051;32;20408;-78
2020/12/02 09:32:39;;;;;;;10.60;7.80;;;6.60;99.90;;;;;;3540996;32;20378;-79
2020/12/02 09:35:07;;;;;;;8.33;7.53;;;6.70;99.90;;;;;;3546079;32;20380;-80
2020/12/02 09:37:34;;;;;;;9.70;7.30;;;6.80;99.90;;;;;;3535720;32;20472;-79
2020/12/02 09:40:04;;;;;;;9.40;8.13;;;6.40;99.90;;;;;;3543078;32;20425;-79
2020/12/02 09:42:30;;;;;;;11.03;8.63;;;6.70;99.90;;;;;;3543245;32;20358;-78
2020/12/02 09:45:10;;;;;;;9.50;8.33;;;6.70;99.90;;;;;;3543112;32;20366;-79
2020/12/02 09:47:37;;;;;;;11.43;7.30;;;6.80;99.90;;;;;;3544133;32;20505;-79
2020/12/02 09:50:05;;;;;;;8.20;6.90;;;6.80;99.90;;;;;;3531895;33;20400;-79
2020/12/02 09:52:47;;;;;;;8.60;7.60;;;7.00;99.90;;;;;;3542552;32;20476;-80
2020/12/02 09:55:24;;;;;;;9.77;6.77;;;7.00;99.90;;;;;;3546306;32;20391;-77
2020/12/02 09:57:52;;;;;;;7.70;6.90;;;7.20;99.90;;;;;;3549398;32;20917;-77
2020/12/02 10:00:24;;;;;;;9.30;7.30;;;7.30;99.90;;;;;;3545466;32;20414;-80
2020/12/02 10:03:04;;;;;;;7.90;7.10;;;7.10;99.90;;;;;;3549328;32;20393;-79
2020/12/02 10:05:42;;;;;;;8.97;8.07;;;7.50;99.90;;;;;;3547321;32;20334;-79
2020/12/02 10:08:31;;;;;;;6.10;5.50;;;7.20;99.90;;;;;;3532798;33;20370;-80
2020/12/02 10:11:29;;;;;;;8.13;5.67;;;7.00;99.90;;;;;;3551137;32;20362;-80
2020/12/02 10:14:34;;;;;;;6.90;6.00;;;7.00;99.90;;;;;;3542217;32;20362;-78
2020/12/02 10:17:42;;;;;;;6.97;5.97;;;7.00;99.90;;;;;;3535274;32;20362;-80
2020/12/02 10:20:31;;;;;;;8.67;7.00;;;7.30;99.90;;;;;;3523746;33;20374;-79
2020/12/02 10:23:15;;;;;;;7.20;6.17;;;7.40;99.90;;;;;;3551039;32;20389;-79
2020/12/02 10:26:00;;;;;;;7.80;6.30;;;7.00;99.90;;;;;;3542843;32;20405;-80
2020/12/02 10:28:48;;;;;;;8.73;6.60;;;7.30;99.90;;;;;;3548236;32;20369;-80
2020/12/02 10:31:37;;;;;;;9.57;7.20;;;7.30;99.90;;;;;;3547590;32;20402;-79
2020/12/02 10:34:21;;;;;;;9.40;7.70;;;7.30;99.90;;;;;;3542862;32;20798;-80
2020/12/02 10:36:52;;;;;;;8.70;7.20;;;7.10;99.90;;;;;;3544333;32;20492;-78
2020/12/02 10:39:26;;;;;;;9.17;6.83;;;7.10;99.90;;;;;;3543949;33;20389;-78
2020/12/02 10:42:17;;;;;;;7.50;6.47;;;7.20;99.90;;;;;;3545184;40;20382;-78
2020/12/02 10:44:59;;;;;;;7.70;6.10;;;7.40;99.90;;;;;;3531604;33;20759;-78
2020/12/02 10:48:02;;;;;;;6.90;6.00;;;7.20;99.90;;;;;;3530683;33;20408;-79
2020/12/02 10:50:32;;;;;;;8.10;6.27;;;7.20;99.90;;;;;;3541392;32;20377;-80
2020/12/02 10:53:04;;;;;;;7.50;6.57;;;7.30;99.90;;;;;;3547717;32;20358;-77
2020/12/02 10:55:33;;;;;;;6.90;6.23;;;7.30;99.90;;;;;;3549481;32;20393;-78
2020/12/02 10:58:18;;;;;;;7.57;6.87;;;7.20;99.90;;;;;;3536327;33;20458;-78
2020/12/02 11:00:52;;;;;;;7.20;6.17;;;7.30;99.90;;;;;;3551447;32;20920;-79
2020/12/02 11:03:20;;;;;;;6.27;5.40;;;7.20;99.90;;;;;;3549135;32;20402;-79
2020/12/02 11:06:27;;;;;;;6.53;5.87;;;6.90;99.90;;;;;;3542201;32;20354;-78
2020/12/02 11:09:18;;;;;;;7.13;5.53;;;7.00;99.90;;;;;;3515576;33;20448;-79
2020/12/02 11:12:27;;;;;;;5.83;5.27;;;7.00;99.90;;;;;;3539283;32;20388;-79
2020/12/02 11:15:37;;;;;;;6.80;5.77;;;7.10;99.90;;;;;;3543170;33;20400;-78
2020/12/02 11:18:27;;;;;;;8.63;6.23;;;7.40;99.90;;;;;;3505054;33;20391;-79
2020/12/02 11:21:10;;;;;;;6.13;5.53;;;7.50;99.90;;;;;;3539294;33;20390;-78
2020/12/02 11:24:07;;;;;;;6.20;5.30;;;7.70;99.90;;;;;;3536786;32;20400;-78
2020/12/02 11:26:38;;;;;;;7.40;5.07;;;7.60;99.90;;;;;;3541175;40;20752;-78
2020/12/02 11:29:08;;;;;;;5.77;5.17;;;7.30;99.90;;;;;;3541959;32;20358;-78
2020/12/02 11:31:54;;;;;;;7.93;6.80;;;7.40;99.90;;;;;;3535484;32;20353;-78
2020/12/02 11:34:29;;;;;;;6.93;6.00;;;7.60;99.90;;;;;;3531163;40;20451;-79
2020/12/02 11:37:04;;;;;;;7.40;6.47;;;7.60;99.90;;;;;;3541812;32;20404;-78
2020/12/02 11:39:55;;;;;;;6.93;5.90;;;7.80;99.90;;;;;;3540089;40;20385;-78
2020/12/02 11:42:55;;;;;;;7.60;5.90;;;7.70;99.90;;;;;;3542212;32;20861;-78
2020/12/02 11:45:29;;;;;;;6.80;5.70;;;7.60;99.90;;;;;;3539426;32;20408;-78
2020/12/02 11:48:17;;;;;;;10.20;6.37;;;7.80;99.90;;;;;;3542843;32;20396;-78
2020/12/02 11:50:53;;;;;;;7.83;6.83;;;7.60;99.90;;;;;;3538852;32;20447;-79
2020/12/02 11:53:37;;;;;;;7.17;6.10;;;7.80;99.90;;;;;;3535257;32;20459;-78
2020/12/02 11:56:10;;;;;;;7.37;6.20;;;7.40;99.90;;;;;;3530740;40;20388;-78
2020/12/02 11:58:36;;;;;;;6.27;5.40;;;7.40;99.90;;;;;;3541111;32;20771;-77
2020/12/02 12:01:14;;;;;;;6.37;5.43;;;7.60;99.90;;;;;;3541098;32;20366;-80
2020/12/02 12:03:56;;;;;;;6.70;5.47;;;7.20;99.90;;;;;;3540290;40;20393;-79
2020/12/02 12:06:25;;;;;;;5.60;5.10;;;7.40;99.90;;;;;;3532643;33;20382;-80
2020/12/02 12:08:58;;;;;;;6.17;5.60;;;7.70;99.90;;;;;;3546437;32;20730;-78
2020/12/02 12:11:34;;;;;;;6.20;5.60;;;7.30;99.90;;;;;;3543892;32;20407;-79
2020/12/02 12:14:30;;;;;;;6.30;5.70;;;7.40;99.90;;;;;;3542709;32;20413;-79
2020/12/02 12:17:12;;;;;;;8.00;5.40;;;7.50;99.90;;;;;;3531767;32;20389;-79
2020/12/02 12:19:58;;;;;;;6.43;5.80;;;7.30;99.90;;;;;;3542744;32;20440;-79
2020/12/02 12:22:42;;;;;;;6.33;5.77;;;7.40;99.90;;;;;;3538662;40;20839;-77
2020/12/02 12:25:11;;;;;;;6.80;6.03;;;7.80;99.90;;;;;;3547922;32;20430;-78
2020/12/02 12:27:40;;;;;;;7.57;5.60;;;7.80;99.90;;;;;;3540732;32;20394;-80
2020/12/02 12:30:07;;;;;;;6.33;5.63;;;7.80;99.90;;;;;;3541492;32;20362;-78
2020/12/02 12:32:55;;;;;;;6.73;6.07;;;7.90;99.90;;;;;;3540178;40;20367;-79
2020/12/02 12:35:38;;;;;;;7.37;6.50;;;7.80;99.90;;;;;;3529061;33;20393;-81
2020/12/02 12:38:16;;;;;;;7.20;6.30;;;8.00;99.90;;;;;;3532361;33;20473;-80
2020/12/02 12:40:52;;;;;;;6.40;5.27;;;7.50;99.90;;;;;;3303542;32;9999640;-78
2020/12/02 12:43:24;;;;;;;6.20;5.37;;;7.80;99.90;;;;;;3533356;33;20377;-79
2020/12/02 12:46:05;;;;;;;7.37;5.87;;;7.60;99.90;;;;;;3539137;32;20358;-78
2020/12/02 12:48:33;;;;;;;8.20;7.27;;;7.50;99.90;;;;;;3540437;32;20385;-77
2020/12/02 12:51:02;;;;;;;7.83;7.10;;;8.00;99.90;;;;;;3535583;33;20366;-80
2020/12/02 12:53:29;;;;;;;6.57;5.93;;;8.00;99.90;;;;;;3540958;33;20378;-77
2020/12/02 12:55:58;;;;;;;9.40;6.90;;;7.90;99.90;;;;;;3541109;40;20406;-78
2020/12/02 12:58:29;;;;;;;7.50;6.70;;;7.90;99.90;;;;;;3535319;33;20436;-81
2020/12/02 13:00:55;;;;;;;7.83;6.03;;;7.80;99.90;;;;;;3538429;32;20381;-79
2020/12/02 13:03:27;;;;;;;8.27;6.43;;;7.80;99.90;;;;;;3538144;32;20410;-79
2020/12/02 13:06:42;;;;;;;8.03;7.13;;;8.00;99.90;;;;;;3538550;40;20409;-79
2020/12/02 13:09:22;;;;;;;6.57;5.70;;;8.20;99.90;;;;;;3522019;33;20842;-79
2020/12/02 13:12:15;;;;;;;7.17;6.40;;;8.20;99.90;;;;;;3531620;40;20370;-79
2020/12/02 13:15:05;;;;;;;6.83;6.23;;;8.10;99.90;;;;;;3532746;33;20373;-80
2020/12/02 13:17:43;;;;;;;8.77;7.27;;;8.00;99.90;;;;;;3532110;40;20366;-80
2020/12/02 13:20:18;;;;;;;7.47;6.77;;;7.80;99.90;;;;;;3533566;33;20350;-80
2020/12/02 13:23:04;;;;;;;6.80;6.10;;;7.50;99.90;;;;;;3535892;32;20456;-78
2020/12/02 13:25:36;;;;;;;8.47;7.10;;;7.50;99.90;;;;;;3543066;32;20396;-78